Flight Track Log - Related Links

Times and Time Zones

All times are in EDT time to prevent confusion due to time zone crossing. See the RAX289 flight status page for this flight to view local times or setup timezone preferences in your user account.

Time Position Orientation Groundspeed Altitude Reporting Facility
EDT Latitude Longitude Course Direction KTS MPH feet Rate Location/Type
Thu 06:44:24 PM 41.6114 -91.5325 75° East 227 261 5,100  Level Chicago Center
Thu 06:45:26 PM 41.6297 -91.4386 75° East 270 311 8,500 2,952 Climbing Chicago Center
Thu 06:46:28 PM 41.6497 -91.3278 76° East 301 346 11,200 2,758 Climbing Chicago Center
Thu 06:47:30 PM 41.6739 -91.2006 76° East 351 404 14,200 2,565 Climbing Chicago Center
Thu 06:48:32 PM 41.7039 -91.0417 76° East 373 429 16,500 1,984 Climbing Chicago Center
Thu 06:49:34 PM 41.7333 -90.8989 75° East 400 460 18,300 1,935 Climbing Chicago Center
Thu 06:50:36 PM 41.7625 -90.7525 75° East 409 471 20,500 1,984 Climbing Chicago Center
Thu 06:51:38 PM 41.7847 -90.6083 78° East 410 472 22,400 1,200 Climbing Chicago Center
Thu 06:52:41 PM 41.8139 -90.4217 78° East 423 487 23,000 912 Climbing Chicago Center
Thu 06:53:43 PM 41.8419 -90.2564 77° East 451 519 24,300 1,548 Climbing Chicago Center
Thu 06:54:45 PM 41.8733 -90.1006 75° East 441 507 26,200 1,742 Climbing Chicago Center
Thu 06:55:47 PM 41.9053 -89.9489 74° East 430 495 27,900 1,694 Climbing Chicago Center
Thu 06:56:49 PM 41.9406 -89.7842 74° East 427 491 29,700 1,714 Climbing Chicago Center
Thu 06:58:00 PM 41.9568 -89.6159 75° East  Level FlightAware Approximate
Thu 06:58:56 PM 41.9961 -89.4481 75° East 425 489 33,300  Level Chicago Center
Thu 06:59:58 PM 42.0556 -89.3333 55° Northeast 402 463 34,800 1,210 Climbing Chicago Center
Thu 07:01:00 PM 42.1606 -89.3792 342° North 398 458 35,800 960 Climbing Chicago Center
Thu 07:02:03 PM 42.1669 -89.5294 273° West 406 467 36,800 1,296 Climbing Chicago Center
Thu 07:03:05 PM 42.1469 -89.6825 260° West 411 473 38,500 1,645 Climbing Chicago Center
Thu 07:04:07 PM 42.1264 -89.8281 259° West 399 459 40,200 1,210 Climbing Chicago Center
Thu 07:05:09 PM 42.1053 -89.9686 259° West 391 450 41,000 387 Climbing Chicago Center
Thu 07:06:11 PM 42.0789 -90.1492 259° West 410 472 41,000  Level Chicago Center
Thu 07:07:13 PM 42.0589 -90.3000 260° West 412 474 41,000  Level Chicago Center
Thu 07:08:15 PM 42.0358 -90.4519 259° West 417 480 41,000  Level Chicago Center
Thu 07:09:17 PM 42.0147 -90.6053 260° West 420 483 41,000  Level Chicago Center
Thu 07:10:19 PM 41.9944 -90.7644 260° West 425 489 41,000  Level Chicago Center
Thu 07:11:21 PM 41.9700 -90.9483 260° West 425 489 41,000  Level Chicago Center
Thu 07:12:23 PM 41.9506 -91.1014 260° West 421 484 41,000  Level Chicago Center
Thu 07:13:26 PM 41.9292 -91.2567 260° West 424 488 41,000  Level Chicago Center
Thu 07:14:28 PM 41.9053 -91.4119 258° West 426 490 41,000  Level Chicago Center
Thu 07:15:30 PM 41.8808 -91.5672 258° West 428 493 41,000  Level Chicago Center
Thu 07:16:32 PM 41.8511 -91.7503 258° West 423 487 41,000  Level Chicago Center
Thu 07:17:34 PM 41.8225 -91.9056 256° West 429 494 41,000  Level Chicago Center
Thu 07:18:36 PM 41.7931 -92.0586 256° West 428 493 41,000  Level Chicago Center
Thu 07:19:38 PM 41.7642 -92.2108 256° West 426 490 41,000  Level Chicago Center
Thu 07:20:40 PM 41.7378 -92.3633 257° West 423 487 41,000  Level Chicago Center
Thu 07:21:42 PM 41.7064 -92.5467 257° West 424 488 41,000  Level Chicago Center
Thu 07:22:44 PM 41.6814 -92.6986 258° West 422 486 41,000  Level Chicago Center
Thu 07:23:46 PM 41.6506 -92.8603 256° West 423 487 41,000  Level Chicago Center
Thu 07:24:49 PM 41.6231 -93.0100 256° West 422 486 41,000  Level Chicago Center
Thu 07:25:51 PM 41.5964 -93.1617 257° West 425 489 41,000  Level Chicago Center
Thu 07:26:53 PM 41.5681 -93.3139 256° West 427 491 41,000  Level Chicago Center
Thu 07:27:55 PM 41.5411 -93.4650 257° West 425 489 41,000  Level Chicago Center
Thu 07:28:57 PM 41.5094 -93.6467 257° West 422 486 41,000  Level Chicago Center
Thu 07:29:59 PM 41.4800 -93.7964 255° West 423 487 41,000  Level Chicago Center
Thu 07:31:01 PM 41.4511 -93.9461 256° West 422 486 41,000  Level Chicago Center
Thu 07:31:36 PM 41.4347 -94.0347 256° West 424 488 41,000  Level Minneapolis Center
Thu 07:32:38 PM 41.4067 -94.1847 256° West 423 487 41,000 -145 Level Minneapolis Center
Thu 07:33:40 PM 41.3714 -94.3608 255° West 425 489 40,700 -581 Descending Minneapolis Center
Thu 07:34:42 PM 41.3417 -94.5128 255° West 425 489 39,800 -919 Descending Minneapolis Center
Thu 07:35:44 PM 41.3133 -94.6614 256° West 419 482 38,800 -968 Descending Minneapolis Center
Thu 07:36:46 PM 41.2808 -94.8081 254° West 416 479 37,800 -871 Descending Minneapolis Center
Thu 07:37:48 PM 41.2461 -94.9561 253° West 417 480 37,000 -919 Descending Minneapolis Center
Thu 07:38:50 PM 41.2036 -95.1400 253° West 429 494 35,900 -1,368 Descending Minneapolis Center
Thu 07:39:42 PM 41.1847 -95.2619 258° West 420 483 34,400 -2,794 Descending Minneapolis Center
Thu 07:41:01 PM 41.1397 -95.4558 253° West 421 484 29,800 -3,970 Descending Minneapolis Center
Thu 07:41:55 PM 41.1033 -95.5931 251° West 433 498 25,600 -4,696 Descending Minneapolis Center
Thu 07:42:56 PM 41.0658 -95.7497 252° West 447 514 20,800 -4,661 Descending Minneapolis Center
Thu 07:43:56 PM 41.0344 -95.9053 255° West 422 486 16,200 -4,165 Descending Minneapolis Center
Thu 07:44:57 PM 41.0158 -96.0375 259° West 337 388 12,400 -3,590 Descending Minneapolis Center
Thu 07:45:58 PM 41.0003 -96.1550 260° West 284 327 8,900 -3,322 Descending Minneapolis Center
Thu 07:46:58 PM 40.9792 -96.2486 253° West 261 300 5,700 -1,934 Descending Minneapolis Center
Thu 07:47:59 PM 40.9619 -96.3414 256° West 264 304 5,000 -331 Descending Minneapolis Center
Thu 07:49:05 PM 40.9478 -96.4506 260° West 270 311 5,000 -361 Level Minneapolis Center
Thu 07:50:12 PM 40.9350 -96.5486 260° West 250 288 4,200 -627 Descending Minneapolis Center
Thu 07:51:19 PM 40.9225 -96.6519 261° West 232 267 3,600 -678 Descending Minneapolis Center
Thu 07:52:07 PM 40.9217 -96.7072 269° West 191 220 2,900 -826 Descending Minneapolis Center
Thu 07:53:08 PM 40.8989 -96.7481 234° Southwest 115 132 2,100 -689 Descending Minneapolis Center
Thu 07:54:09 PM 40.8675 -96.7458 177° South 111 128 1,500 -590 Descending Minneapolis Center

Login

Don't have an account? Register now (free) for customized features, flight alerts, and more!